Time;durP1;ratioP1;P1;durP2;ratioP2;P2;SDS_P1;SDS_P2;PMS_P1;PMS_P2;Temp;Humidity;BMP_temperature;BMP_pressure;BME280_temperature;BME280_humidity;BME280_pressure;Samples;Min_cycle;Max_cycle;Signal;HPM_P1;HPM_P2
2022/05/29 00:01:16;;;;;;;26.13;11.10;;;;;;;13.35;100.00;99792.91;5016799;28;20037;-84
2022/05/29 00:03:45;;;;;;;19.10;9.90;;;;;;;13.37;100.00;99806.84;5001256;28;20076;-86
2022/05/29 00:06:12;;;;;;;16.00;8.98;;;;;;;13.42;100.00;99826.50;5035338;28;20428;-86
2022/05/29 00:08:40;;;;;;;19.80;9.57;;;;;;;13.50;100.00;99848.66;5017799;28;20037;-86
2022/05/29 00:11:09;;;;;;;17.17;8.25;;;;;;;13.40;100.00;99854.34;5000782;28;20043;-85
2022/05/29 00:13:35;;;;;;;20.27;9.95;;;;;;;13.52;100.00;99858.13;5015677;28;20110;-85
2022/05/29 00:16:00;;;;;;;19.90;9.40;;;;;;;13.54;100.00;99861.41;5033197;28;20069;-85
2022/05/29 00:18:26;;;;;;;20.77;9.45;;;;;;;13.54;100.00;99872.06;5016092;28;20025;-84
2022/05/29 00:20:55;;;;;;;13.30;8.45;;;;;;;13.70;100.00;99871.72;5034209;28;20033;-83
2022/05/29 00:23:21;;;;;;;21.95;9.55;;;;;;;13.71;100.00;99873.38;5036421;28;20377;-88
2022/05/29 00:25:50;;;;;;;15.80;7.45;;;;;;;13.63;100.00;99865.53;5038819;28;20112;-87
2022/05/29 00:28:16;;;;;;;13.32;7.15;;;;;;;13.67;100.00;99882.75;5042756;28;20220;-91
2022/05/29 00:30:42;;;;;;;26.08;7.50;;;;;;;13.61;100.00;99856.94;5029433;28;20105;-84
2022/05/29 00:33:08;;;;;;;16.05;6.68;;;;;;;13.66;100.00;99849.16;5046103;28;20029;-87
2022/05/29 00:35:39;;;;;;;14.82;7.50;;;;;;;13.65;100.00;99862.69;5045020;28;20038;-83
2022/05/29 00:38:11;;;;;;;20.23;7.68;;;;;;;13.78;100.00;99852.91;5012570;28;20044;-82
2022/05/29 00:41:17;;;;;;;14.75;6.45;;;;;;;13.80;100.00;99872.19;5045160;28;20583;-84
2022/05/29 00:44:07;;;;;;;15.73;6.72;;;;;;;13.72;100.00;99856.34;5044019;28;20042;-87
2022/05/29 00:46:34;;;;;;;16.40;6.70;;;;;;;13.91;100.00;99854.81;5046018;28;20033;-83
2022/05/29 00:49:05;;;;;;;12.38;6.22;;;;;;;13.85;100.00;99842.28;5028999;28;20033;-82
2022/05/29 00:51:47;;;;;;;10.18;5.40;;;;;;;13.73;100.00;99842.03;5043763;28;20037;-83
2022/05/29 00:54:17;;;;;;;12.20;5.63;;;;;;;13.79;100.00;99857.19;5043048;28;20038;-83
2022/05/29 00:56:48;;;;;;;7.85;4.50;;;;;;;13.83;100.00;99831.00;5038719;28;20029;-83
2022/05/29 00:59:20;;;;;;;9.30;5.10;;;;;;;13.76;100.00;99832.81;5020373;28;20041;-83
2022/05/29 01:01:46;;;;;;;8.20;4.10;;;;;;;13.71;100.00;99828.09;5037916;28;20053;-83
2022/05/29 01:04:12;;;;;;;15.00;4.70;;;;;;;13.79;100.00;99817.25;5020385;28;20042;-85
2022/05/29 01:06:44;;;;;;;14.50;4.40;;;;;;;13.89;100.00;99844.34;5038488;28;20072;-83
2022/05/29 01:09:11;;;;;;;10.17;4.63;;;;;;;13.73;100.00;99849.19;5005115;28;20052;-87
2022/05/29 01:12:15;;;;;;;11.82;4.88;;;;;;;13.83;100.00;99837.16;5037739;28;20443;-89
2022/05/29 01:14:55;;;;;;;9.55;4.22;;;;;;;13.81;100.00;99825.88;4997418;28;20061;-87
2022/05/29 01:17:40;;;;;;;10.88;4.65;;;;;;;13.76;100.00;99804.34;5036497;28;20042;-86
2022/05/29 01:20:17;;;;;;;12.02;4.22;;;;;;;13.77;100.00;99803.31;5018110;28;20432;-87
2022/05/29 01:23:00;;;;;;;12.48;4.72;;;;;;;13.80;100.00;99794.94;5036742;28;20033;-85
2022/05/29 01:25:35;;;;;;;10.20;4.55;;;;;;;13.69;100.00;99787.50;5036224;28;20036;-88
2022/05/29 01:28:01;;;;;;;11.15;4.40;;;;;;;13.79;100.00;99792.47;5036115;28;20404;-86
2022/05/29 01:30:31;;;;;;;13.55;4.43;;;;;;;13.73;100.00;99780.78;5017805;28;20088;-86
2022/05/29 01:33:19;;;;;;;16.58;5.13;;;;;;;13.74;100.00;99785.09;5035537;28;20427;-87
2022/05/29 01:36:00;;;;;;;11.52;5.38;;;;;;;13.66;100.00;99787.91;5035608;28;20040;-89
2022/05/29 01:38:34;;;;;;;11.60;5.07;;;;;;;13.67;100.00;99781.56;5034947;28;20084;-88
2022/05/29 01:41:07;;;;;;;12.18;4.90;;;;;;;13.65;100.00;99777.47;5028968;28;20037;-88
2022/05/29 01:43:32;;;;;;;11.35;5.00;;;;;;;13.60;100.00;99775.41;5035699;28;20392;-90
2022/05/29 01:46:06;;;;;;;15.65;5.55;;;;;;;13.57;100.00;99775.81;5017934;28;20045;-89
2022/05/29 01:48:59;;;;;;;15.52;5.03;;;;;;;13.60;100.00;99778.06;5036070;28;20095;-86
2022/05/29 01:51:36;;;;;;;11.10;4.63;;;;;;;13.60;100.00;99759.44;5036059;28;20033;-88
2022/05/29 01:54:12;;;;;;;10.68;4.78;;;;;;;13.58;100.00;99769.47;5036020;28;20032;-89
2022/05/29 01:56:52;;;;;;;13.60;5.68;;;;;;;13.58;100.00;99758.81;5041178;28;20037;-89
2022/05/29 01:59:35;;;;;;;20.27;6.10;;;;;;;13.57;100.00;99749.19;5048227;28;20057;-85
2022/05/29 02:02:09;;;;;;;10.07;5.13;;;;;;;13.53;100.00;99747.94;5053314;28;20033;-84
2022/05/29 02:04:39;;;;;;;14.63;5.75;;;;;;;13.55;100.00;99737.09;5056597;28;20096;-82
2022/05/29 02:10:04;;;;;;;19.65;5.95;;;;;;;13.53;100.00;99725.81;5040086;28;20035;-83
2022/05/29 02:12:31;;;;;;;14.40;5.03;;;;;;;13.49;100.00;99722.72;5056400;28;20022;-84
2022/05/29 02:15:06;;;;;;;18.40;5.40;;;;;;;13.55;100.00;99721.13;5046329;28;20121;-87
2022/05/29 02:17:40;;;;;;;13.07;5.22;;;;;;;13.57;100.00;99706.59;5019314;28;20048;-87
2022/05/29 02:20:20;;;;;;;9.07;4.90;;;;;;;13.59;100.00;99715.19;5035443;28;20385;-88
2022/05/29 02:22:49;;;;;;;16.02;5.32;;;;;;;13.60;100.00;99708.84;5052064;28;20499;-88
2022/05/29 02:25:19;;;;;;;16.38;5.72;;;;;;;13.65;100.00;99698.44;5037499;28;20036;-90
2022/05/29 02:27:52;;;;;;;15.95;5.45;;;;;;;13.59;100.00;99711.72;5036387;28;20092;-88
2022/05/29 02:30:18;;;;;;;17.33;5.82;;;;;;;13.60;100.00;99697.38;5041442;28;20074;-84
2022/05/29 02:33:15;;;;;;;11.15;5.43;;;;;;;13.61;100.00;99694.53;5040653;28;20033;-87
2022/05/29 02:35:56;;;;;;;14.70;5.57;;;;;;;13.61;100.00;99691.03;5039807;28;20093;-86
2022/05/29 02:38:44;;;;;;;17.67;5.70;;;;;;;13.66;100.00;99683.25;5024168;28;20399;-87
2022/05/29 02:41:20;;;;;;;11.85;5.65;;;;;;;13.68;100.00;99686.53;5039249;28;20042;-89
2022/05/29 02:43:49;;;;;;;14.00;5.32;;;;;;;13.87;100.00;99686.56;5019741;28;20073;-89
2022/05/29 02:46:31;;;;;;;13.30;5.03;;;;;;;13.73;100.00;99684.91;5035639;28;20061;-90
2022/05/29 02:49:13;;;;;;;13.52;5.80;;;;;;;13.73;100.00;99682.25;5019204;28;20052;-89
2022/05/29 02:51:49;;;;;;;13.07;5.70;;;;;;;13.66;100.00;99684.06;5035648;28;20047;-88
2022/05/29 02:54:25;;;;;;;16.08;6.00;;;;;;;13.65;100.00;99677.13;5034995;28;20030;-89
2022/05/29 02:56:55;;;;;;;14.32;5.80;;;;;;;13.63;100.00;99679.16;5017968;28;20446;-90
2022/05/29 02:59:23;;;;;;;16.00;6.18;;;;;;;13.64;100.00;99670.16;5034885;28;20040;-90
2022/05/29 03:01:49;;;;;;;11.20;5.57;;;;;;;13.67;100.00;99679.56;5035600;28;20037;-90
2022/05/29 03:04:57;;;;;;;13.80;5.68;;;;;;;13.83;100.00;99685.31;5038865;28;20025;-90
2022/05/29 03:07:35;;;;;;;13.13;5.20;;;;;;;13.74;100.00;99670.56;5042590;28;20166;-91
2022/05/29 03:10:18;;;;;;;10.88;5.40;;;;;;;13.82;100.00;99685.56;5038678;28;20548;-86
2022/05/29 03:13:06;;;;;;;10.00;5.75;;;;;;;13.80;100.00;99685.72;5036602;28;20531;-86
2022/05/29 03:15:41;;;;;;;14.18;5.88;;;;;;;13.88;100.00;99682.06;5035095;28;20079;-94
2022/05/29 03:18:28;;;;;;;10.48;5.47;;;;;;;13.82;100.00;99675.69;5017180;28;20033;-92
2022/05/29 03:21:18;;;;;;;11.77;5.18;;;;;;;13.78;100.00;99673.66;5019231;28;20204;-93
2022/05/29 03:23:56;;;;;;;12.68;5.88;;;;;;;13.72;100.00;99659.28;5036261;28;20041;-88
2022/05/29 03:26:40;;;;;;;10.48;5.57;;;;;;;13.80;100.00;99666.28;5036596;28;20061;-92
2022/05/29 03:29:26;;;;;;;9.93;5.47;;;;;;;13.82;100.00;99662.38;5034555;28;20040;-86
2022/05/29 03:31:52;;;;;;;11.18;4.80;;;;;;;13.88;100.00;99655.44;5034100;28;20440;-85
2022/05/29 03:34:21;;;;;;;9.90;5.40;;;;;;;13.89;100.00;99657.88;5034040;28;20106;-90
2022/05/29 03:36:48;;;;;;;13.63;5.45;;;;;;;13.76;100.00;99667.69;5016664;28;20025;-89
2022/05/29 03:39:14;;;;;;;7.40;4.95;;;;;;;13.77;100.00;99656.03;5033757;28;20037;-88
2022/05/29 03:41:44;;;;;;;12.40;5.32;;;;;;;13.81;100.00;99660.75;5034012;28;20109;-90
2022/05/29 03:44:14;;;;;;;11.40;4.78;;;;;;;13.83;100.00;99655.19;5034583;28;20128;-92
2022/05/29 03:46:39;;;;;;;9.50;4.82;;;;;;;13.92;100.00;99657.47;5034736;28;20030;-85
2022/05/29 03:49:09;;;;;;;13.05;5.38;;;;;;;13.88;100.00;99661.59;5035782;28;20037;-87
2022/05/29 03:51:36;;;;;;;14.05;4.90;;;;;;;13.87;100.00;99657.28;5035503;28;20602;-92
2022/05/29 03:54:03;;;;;;;12.57;5.38;;;;;;;13.89;100.00;99665.88;5035021;28;20064;-89
2022/05/29 03:56:28;;;;;;;11.65;4.60;;;;;;;13.84;100.00;99673.66;5016893;28;20499;-84
2022/05/29 03:58:54;;;;;;;11.23;4.88;;;;;;;13.88;100.00;99672.25;5035062;28;20120;-93
2022/05/29 04:01:20;;;;;;;9.93;5.00;;;;;;;13.89;100.00;99673.03;5035566;28;20042;-88
2022/05/29 04:03:45;;;;;;;10.75;4.65;;;;;;;13.85;100.00;99677.16;5037319;28;20033;-91
2022/05/29 04:06:11;;;;;;;10.00;4.85;;;;;;;13.87;100.00;99683.91;5050865;28;20492;-90
2022/05/29 04:14:06;;;;;;;18.88;5.40;;;;;;;13.58;100.00;99686.94;5049653;28;20037;-83
2022/05/29 04:16:32;;;;;;;10.98;5.90;;;;;;;13.43;100.00;99684.44;5050974;28;20033;-83
2022/05/29 04:18:58;;;;;;;13.88;5.93;;;;;;;13.40;100.00;99689.34;5051370;28;20145;-83
2022/05/29 04:21:24;;;;;;;15.65;6.05;;;;;;;13.40;100.00;99697.31;5038108;28;20041;-85
2022/05/29 04:23:49;;;;;;;13.73;5.95;;;;;;;13.36;100.00;99693.41;5055690;28;20021;-85
2022/05/29 04:26:16;;;;;;;11.65;5.55;;;;;;;13.26;100.00;99703.59;5037617;28;20029;-84
2022/05/29 04:28:42;;;;;;;11.43;6.30;;;;;;;13.33;100.00;99693.81;5042733;28;20021;-86
2022/05/29 04:31:08;;;;;;;15.95;6.43;;;;;;;13.38;100.00;99694.88;5063942;28;20059;-83
2022/05/29 04:33:34;;;;;;;16.88;6.82;;;;;;;13.29;100.00;99704.03;5062911;28;20053;-85
2022/05/29 04:35:59;;;;;;;14.55;5.95;;;;;;;13.39;100.00;99707.13;5063459;28;20040;-83
2022/05/29 04:38:27;;;;;;;14.52;6.53;;;;;;;13.29;100.00;99692.59;5063231;28;20030;-86
2022/05/29 04:40:54;;;;;;;10.88;6.05;;;;;;;13.29;100.00;99701.38;5062181;28;20093;-82
2022/05/29 04:43:21;;;;;;;13.38;5.60;;;;;;;13.24;100.00;99690.53;5077982;28;20113;-83
2022/05/29 04:45:51;;;;;;;9.75;5.25;;;;;;;13.19;100.00;99689.50;5062579;28;20033;-86
2022/05/29 04:48:16;;;;;;;14.40;6.15;;;;;;;13.36;100.00;99688.91;5063182;28;20026;-86
2022/05/29 04:50:42;;;;;;;11.82;6.53;;;;;;;13.34;100.00;99674.16;5061794;28;20038;-83
2022/05/29 04:53:08;;;;;;;13.77;6.90;;;;;;;13.23;100.00;99682.72;5021662;28;20045;-82
2022/05/29 04:55:34;;;;;;;13.48;5.88;;;;;;;13.20;100.00;99683.13;5036924;28;20113;-83
2022/05/29 05:00:42;;;;;;;13.27;6.35;;;;;;;13.28;100.00;99685.63;4880599;26;20045;-82
2022/05/29 05:03:12;;;;;;;11.25;5.93;;;;;;;13.27;100.00;99689.28;5037275;23;20048;-82
2022/05/29 05:05:38;;;;;;;15.57;6.35;;;;;;;13.27;100.00;99689.28;5047802;22;20049;-83
2022/05/29 05:08:06;;;;;;;10.95;5.75;;;;;;;13.36;100.00;99688.09;5014863;28;20037;-82
2022/05/29 05:10:45;;;;;;;17.23;6.13;;;;;;;13.38;100.00;99686.06;5029901;28;20063;-82
2022/05/29 05:13:12;;;;;;;15.27;6.00;;;;;;;13.34;100.00;99690.13;5041699;23;20053;-85
2022/05/29 05:15:38;;;;;;;13.75;6.47;;;;;;;13.23;100.00;99688.88;5031145;28;20063;-84
2022/05/29 05:18:08;;;;;;;14.88;6.30;;;;;;;13.18;100.00;99686.00;5031801;28;20061;-84
2022/05/29 05:20:34;;;;;;;11.10;6.50;;;;;;;13.24;100.00;99682.53;5047160;28;20063;-83
2022/05/29 05:23:01;;;;;;;13.80;6.80;;;;;;;13.32;100.00;99676.22;5045666;28;20041;-82
2022/05/29 05:25:26;;;;;;;9.73;6.00;;;;;;;13.36;100.00;99674.78;5045021;28;20457;-80
2022/05/29 05:27:55;;;;;;;14.93;6.75;;;;;;;13.35;100.00;99675.81;5048797;28;20037;-82
2022/05/29 05:30:27;;;;;;;11.90;6.78;;;;;;;13.36;100.00;99680.09;5048601;28;20025;-84
2022/05/29 05:32:52;;;;;;;19.45;6.20;;;;;;;13.28;100.00;99667.81;5043665;28;20071;-87
2022/05/29 05:35:18;;;;;;;13.93;6.05;;;;;;;13.46;100.00;99667.22;5045458;28;20041;-83
2022/05/29 05:37:44;;;;;;;12.50;6.40;;;;;;;13.39;100.00;99663.72;5047229;28;20044;-82
2022/05/29 05:40:12;;;;;;;16.45;5.88;;;;;;;13.34;100.00;99661.69;5039782;28;20057;-82
2022/05/29 05:42:38;;;;;;;11.80;6.88;;;;;;;13.28;100.00;99649.19;5028740;28;20026;-82
2022/05/29 05:45:10;;;;;;;19.45;6.80;;;;;;;13.34;100.00;99647.56;5041863;28;20034;-83
2022/05/29 05:47:36;;;;;;;13.43;5.72;;;;;;;13.29;100.00;99650.81;5046725;28;20037;-84
2022/05/29 05:50:05;;;;;;;12.45;6.00;;;;;;;13.33;100.00;99644.06;5011892;28;20116;-84
2022/05/29 05:52:32;;;;;;;14.25;6.93;;;;;;;13.28;100.00;99651.03;5046574;28;20068;-82
2022/05/29 05:55:07;;;;;;;17.20;6.82;;;;;;;13.36;100.00;99649.00;5048300;28;20005;-82
2022/05/29 05:57:35;;;;;;;19.95;6.22;;;;;;;13.28;100.00;99649.19;5044224;28;20041;-84
2022/05/29 06:00:00;;;;;;;10.18;6.25;;;;;;;13.38;100.00;99644.31;5020174;28;20034;-81
2022/05/29 06:02:26;;;;;;;11.45;6.80;;;;;;;13.39;100.00;99635.28;5038587;28;20037;-83
2022/05/29 06:04:52;;;;;;;11.95;6.68;;;;;;;13.40;100.00;99631.59;5041022;28;20029;-84
2022/05/29 06:07:18;;;;;;;11.68;6.55;;;;;;;13.37;100.00;99633.84;5046016;28;20532;-85
2022/05/29 06:09:47;;;;;;;12.80;7.18;;;;;;;13.50;100.00;99628.53;5045063;28;20097;-85
2022/05/29 06:12:21;;;;;;;12.30;6.65;;;;;;;13.58;100.00;99617.72;5027934;28;20504;-83
2022/05/29 06:14:47;;;;;;;15.32;7.30;;;;;;;13.76;100.00;99623.25;5019105;28;20033;-82
2022/05/29 06:17:16;;;;;;;16.88;6.57;;;;;;;13.64;100.00;99622.22;5022635;28;20030;-86
2022/05/29 06:20:01;;;;;;;13.90;6.07;;;;;;;13.80;100.00;99616.50;5012523;28;20060;-90
2022/05/29 06:22:30;;;;;;;13.18;6.53;;;;;;;13.85;100.00;99622.00;5038134;28;20034;-84
2022/05/29 06:24:56;;;;;;;9.77;5.57;;;;;;;13.81;100.00;99631.47;5004527;28;20109;-87
2022/05/29 06:27:22;;;;;;;10.38;5.43;;;;;;;13.70;100.00;99629.38;5012196;28;20034;-85
2022/05/29 06:29:47;;;;;;;14.90;5.55;;;;;;;13.74;100.00;99638.63;5033345;28;20638;-89
2022/05/29 06:32:17;;;;;;;12.13;5.93;;;;;;;13.78;100.00;99641.69;5015727;28;20039;-84
2022/05/29 06:34:43;;;;;;;14.57;6.03;;;;;;;13.87;100.00;99637.81;5006406;28;20123;-86
2022/05/29 06:37:08;;;;;;;13.52;5.65;;;;;;;13.82;100.00;99641.06;5019195;23;20132;-86
2022/05/29 06:39:36;;;;;;;14.52;5.18;;;;;;;13.83;100.00;99637.38;5108938;23;20041;-88
2022/05/29 06:42:05;;;;;;;10.85;4.70;;;;;;;13.90;100.00;99640.06;5015331;28;20064;-89
2022/05/29 06:44:45;;;;;;;9.25;4.70;;;;;;;13.79;100.00;99632.66;5001169;28;20038;-88
2022/05/29 06:47:13;;;;;;;12.63;4.63;;;;;;;13.80;100.00;99637.78;5015026;28;20069;-88
2022/05/29 06:49:44;;;;;;;10.50;4.95;;;;;;;13.69;100.00;99635.72;4983021;28;20027;-87
2022/05/29 06:52:11;;;;;;;11.23;4.50;;;;;;;13.75;100.00;99645.59;4997272;28;20041;-87
2022/05/29 06:54:40;;;;;;;10.90;4.93;;;;;;;13.81;100.00;99636.78;4998810;28;20492;-87
2022/05/29 06:57:07;;;;;;;8.88;4.38;;;;;;;13.87;100.00;99649.28;4999021;28;20501;-86
2022/05/29 07:07:53;;;;;;;9.43;3.90;;;;;;;14.05;100.00;99637.19;5013735;28;20474;-88
2022/05/29 07:10:28;;;;;;;11.15;4.13;;;;;;;13.93;100.00;99637.81;5009026;28;20180;-85
2022/05/29 07:12:54;;;;;;;8.82;4.65;;;;;;;13.91;100.00;99618.56;5015080;28;20026;-88
2022/05/29 07:15:20;;;;;;;11.95;4.03;;;;;;;13.92;100.00;99628.16;4998233;28;20042;-87
2022/05/29 07:17:49;;;;;;;11.73;4.25;;;;;;;14.01;100.00;99619.97;4996938;28;20042;-89
2022/05/29 07:20:28;;;;;;;18.52;5.20;;;;;;;14.19;100.00;99625.47;5017106;28;20100;-87
2022/05/29 07:23:14;;;;;;;6.97;3.83;;;;;;;14.34;100.00;99623.44;4998303;28;20042;-91
2022/05/29 07:26:03;;;;;;;16.27;4.10;;;;;;;14.44;100.00;99629.16;5010232;28;20071;-91
2022/05/29 07:28:37;;;;;;;5.78;4.03;;;;;;;14.34;100.00;99618.94;5008030;28;20034;-91
2022/05/29 07:31:06;;;;;;;9.77;3.95;;;;;;;14.34;100.00;99626.13;5007010;28;20070;-91
2022/05/29 07:33:32;;;;;;;7.90;3.70;;;;;;;14.25;100.00;99625.47;4988035;28;20030;-90
2022/05/29 07:35:59;;;;;;;9.38;3.50;;;;;;;14.37;100.00;99628.34;5021529;28;20057;-91
2022/05/29 07:38:29;;;;;;;4.88;3.22;;;;;;;14.44;100.00;99624.66;5021655;28;20026;-92
2022/05/29 07:40:55;;;;;;;9.10;4.10;;;;;;;14.47;100.00;99621.56;5020211;28;20076;-88
2022/05/29 07:43:22;;;;;;;9.73;3.42;;;;;;;14.54;100.00;99623.41;5002929;28;20056;-91
2022/05/29 07:45:47;;;;;;;8.60;3.38;;;;;;;14.40;100.00;99626.09;5021174;28;20369;-88
2022/05/29 07:48:15;;;;;;;7.97;3.78;;;;;;;14.44;100.00;99618.50;5020808;28;20068;-87
2022/05/29 07:51:13;;;;;;;8.40;3.38;;;;;;;14.55;100.00;99620.50;5023434;28;20430;-86
2022/05/29 07:53:39;;;;;;;12.70;3.90;;;;;;;14.60;100.00;99633.22;5019425;28;20076;-87
2022/05/29 07:56:07;;;;;;;11.63;3.63;;;;;;;14.49;100.00;99622.19;5023630;28;20034;-92
2022/05/29 07:58:38;;;;;;;8.10;3.63;;;;;;;14.60;100.00;99627.88;5022138;28;20029;-88
2022/05/29 08:01:05;;;;;;;6.68;3.50;;;;;;;14.58;100.00;99630.78;5026729;28;20403;-88
2022/05/29 08:04:09;;;;;;;9.75;3.15;;;;;;;14.69;100.00;99632.78;4986188;28;20139;-87
2022/05/29 08:06:35;;;;;;;10.35;3.05;;;;;;;14.78;100.00;99630.72;4998813;28;20048;-83
2022/05/29 08:09:04;;;;;;;6.43;2.97;;;;;;;14.93;100.00;99634.75;5022993;28;20060;-86
2022/05/29 08:11:30;;;;;;;8.88;3.38;;;;;;;14.94;100.00;99636.41;5022152;28;20041;-85
2022/05/29 08:14:20;;;;;;;6.88;3.30;;;;;;;14.91;100.00;99634.13;5013833;28;20041;-87
2022/05/29 08:16:56;;;;;;;7.68;3.58;;;;;;;14.75;100.00;99633.81;5027509;28;20373;-84
2022/05/29 08:19:23;;;;;;;7.72;3.13;;;;;;;14.82;100.00;99632.72;5027960;28;20040;-87
2022/05/29 08:21:49;;;;;;;5.05;2.90;;;;;;;14.78;100.00;99630.72;5028235;28;20876;-87
2022/05/29 08:32:31;;;;;;;9.68;3.42;;;;;;;14.95;100.00;99632.69;5032433;28;20394;-81
2022/05/29 08:34:59;;;;;;;6.43;3.10;;;;;;;14.97;100.00;99627.97;5025109;28;20036;-85
2022/05/29 08:37:25;;;;;;;8.25;3.30;;;;;;;14.96;100.00;99637.00;5038639;28;20025;-88
2022/05/29 08:39:50;;;;;;;7.13;3.20;;;;;;;15.07;100.00;99640.03;5034884;28;20037;-82
2022/05/29 08:42:26;;;;;;;8.25;3.22;;;;;;;15.06;100.00;99633.03;5014796;28;20042;-82
2022/05/29 08:44:52;;;;;;;6.60;3.28;;;;;;;14.98;100.00;99637.59;5038773;28;20105;-84
2022/05/29 08:47:25;;;;;;;7.55;3.35;;;;;;;15.10;100.00;99634.25;5037874;28;20029;-81
2022/05/29 08:49:51;;;;;;;7.82;3.38;;;;;;;15.07;100.00;99640.84;5038115;28;20044;-82
2022/05/29 08:52:45;;;;;;;8.55;3.53;;;;;;;15.00;100.00;99635.53;5035535;28;20121;-80
2022/05/29 08:55:26;;;;;;;9.98;4.00;;;;;;;15.10;100.00;99628.94;5013828;28;20088;-80
2022/05/29 08:58:00;;;;;;;7.60;3.63;;;;;;;15.19;100.00;99633.81;5016623;28;20034;-86
2022/05/29 09:00:59;;;;;;;8.63;4.05;;;;;;;15.25;100.00;99621.44;5013351;28;20042;-82
2022/05/29 09:03:37;;;;;;;8.23;3.40;;;;;;;15.19;100.00;99622.31;5004179;28;20052;-83
2022/05/29 09:06:21;;;;;;;7.80;3.53;;;;;;;15.25;100.00;99627.59;5012251;28;20496;-84
2022/05/29 09:08:59;;;;;;;8.35;3.38;;;;;;;15.46;100.00;99621.94;5030605;28;20038;-81
2022/05/29 09:11:51;;;;;;;5.97;3.72;;;;;;;15.38;100.00;99626.69;5008613;28;20512;-83
2022/05/29 09:14:31;;;;;;;21.70;3.87;;;;;;;15.48;100.00;99627.91;5030689;28;20091;-85
2022/05/29 09:17:03;;;;;;;8.50;3.60;;;;;;;15.41;100.00;99615.63;5034479;28;20073;-88
2022/05/29 09:19:47;;;;;;;9.13;3.33;;;;;;;15.56;100.00;99623.34;5025114;28;20038;-88
2022/05/29 09:22:54;;;;;;;5.30;3.25;;;;;;;15.53;100.00;99619.25;5040293;28;20128;-90
2022/05/29 09:26:00;;;;;;;5.47;2.75;;;;;;;15.30;100.00;99617.13;5025119;28;20029;-92
2022/05/29 09:28:42;;;;;;;6.38;2.95;;;;;;;15.29;100.00;99622.66;5022910;28;20040;-91
2022/05/29 09:31:18;;;;;;;5.57;3.08;;;;;;;15.31;100.00;99631.28;5024659;28;20378;-83
2022/05/29 09:33:47;;;;;;;9.88;3.95;;;;;;;15.24;100.00;99617.16;5043585;28;20030;-91
2022/05/29 09:36:37;;;;;;;11.95;3.58;;;;;;;15.24;100.00;99625.16;5010959;28;20037;-91
2022/05/29 09:39:05;;;;;;;7.78;2.70;;;;;;;15.32;100.00;99625.72;5029886;28;20045;-86
2022/05/29 09:41:43;;;;;;;9.70;3.15;;;;;;;15.31;100.00;99623.28;5027972;28;20397;-90
2022/05/29 09:44:29;;;;;;;7.72;2.53;;;;;;;15.48;100.00;99627.91;5032088;28;20033;-87
2022/05/29 09:50:10;;;;;;;8.10;2.90;;;;;;;15.45;100.00;99622.13;5035997;28;20063;-91
2022/05/29 09:52:43;;;;;;;6.50;3.00;;;;;;;15.38;100.00;99626.69;5041531;28;20030;-89
2022/05/29 09:58:35;;;;;;;7.72;2.60;;;;;;;15.45;100.00;99632.81;2809617;26;20049;-86
2022/05/29 10:01:06;;;;;;;7.88;2.63;;;;;;;15.39;100.00;99636.34;5024275;28;20509;-85
2022/05/29 10:03:56;;;;;;;12.10;3.25;;;;;;;15.41;100.00;99636.97;5019536;28;20077;-85
2022/05/29 10:06:21;;;;;;;8.27;3.03;;;;;;;15.38;100.00;99645.38;4998482;28;20069;-87
2022/05/29 10:09:01;;;;;;;7.57;3.08;;;;;;;15.36;100.00;99634.13;5013320;28;20092;-87
2022/05/29 10:21:24;;;;;;;9.73;3.22;;;;;;;15.64;100.00;99633.78;5057580;23;20085;-85
2022/05/29 10:24:42;;;;;;;7.30;2.80;;;;;;;15.62;100.00;99643.84;5035585;28;20101;-89
2022/05/29 10:27:46;;;;;;;12.00;3.37;;;;;;;15.59;100.00;99639.75;5033001;28;20045;-88
2022/05/29 10:30:53;;;;;;;8.35;3.00;;;;;;;15.54;100.00;99636.94;5037024;28;20045;-89
2022/05/29 10:33:25;;;;;;;10.85;3.30;;;;;;;15.55;100.00;99638.53;5035235;28;20037;-86
2022/05/29 10:35:59;;;;;;;9.75;3.10;;;;;;;15.55;100.00;99638.53;5049144;28;20080;-89
2022/05/29 10:38:29;;;;;;;7.70;2.80;;;;;;;15.50;100.00;99638.38;5035502;28;20061;-89
2022/05/29 10:40:59;;;;;;;10.68;2.90;;;;;;;15.42;100.00;99642.09;5070298;23;20032;-87
2022/05/29 10:44:03;;;;;;;6.65;3.20;;;;;;;15.36;100.00;99639.47;5043846;28;20047;-87
2022/05/29 10:47:26;;;;;;;11.82;2.90;;;;;;;15.36;100.00;99631.44;5052590;28;20067;-87
2022/05/29 10:50:37;;;;;;;13.30;3.00;;;;;;;15.44;100.00;99631.22;5053335;28;20064;-87
2022/05/29 10:53:34;;;;;;;5.03;3.15;;;;;;;15.51;100.00;99630.16;5049440;28;20037;-89
2022/05/29 10:56:11;;;;;;;8.20;2.97;;;;;;;15.63;100.00;99627.63;5061254;28;20030;-91
2022/05/29 10:59:04;;;;;;;6.65;3.10;;;;;;;15.60;100.00;99614.69;5046755;28;20090;-88
2022/05/29 11:05:37;;;;;;;9.32;3.40;;;;;;;15.77;100.00;99610.47;5074408;28;20064;-91
2022/05/29 11:08:37;;;;;;;12.93;7.00;;;;;;;15.83;100.00;99620.28;5036825;28;20037;-89
2022/05/29 11:11:34;;;;;;;13.02;3.20;;;;;;;15.99;100.00;99618.91;5056351;28;20082;-85
2022/05/29 11:14:23;;;;;;;6.97;3.40;;;;;;;15.88;100.00;99617.75;5051977;28;20078;-86
2022/05/29 11:17:15;;;;;;;8.98;3.28;;;;;;;15.94;100.00;99622.22;5064433;28;20098;-87
2022/05/29 11:20:02;;;;;;;10.27;3.50;;;;;;;15.98;100.00;99622.59;5058234;28;20108;-88
2022/05/29 11:22:52;;;;;;;6.45;3.65;;;;;;;16.02;100.00;99619.28;5050739;28;20370;-88
2022/05/29 11:25:46;;;;;;;14.68;3.75;;;;;;;16.10;100.00;99625.38;5043232;28;20037;-84
2022/05/29 11:28:30;;;;;;;6.47;3.30;;;;;;;16.08;100.00;99617.56;5051693;28;20146;-85
2022/05/29 11:31:01;;;;;;;9.57;3.80;;;;;;;16.18;100.00;99619.75;5060588;28;20045;-86
2022/05/29 11:33:59;;;;;;;10.23;3.80;;;;;;;16.22;100.00;99616.41;5025025;28;20045;-86
2022/05/29 11:36:45;;;;;;;9.35;3.53;;;;;;;16.24;100.00;99618.88;5036115;28;20067;-86
2022/05/29 11:39:23;;;;;;;8.23;3.60;;;;;;;16.30;100.00;99615.31;5046903;28;20044;-85
2022/05/29 11:42:00;;;;;;;12.85;3.83;;;;;;;16.26;100.00;99624.81;5056623;28;20032;-85
2022/05/29 11:44:34;;;;;;;9.52;3.35;;;;;;;16.27;100.00;99621.13;5042211;28;20025;-87
2022/05/29 11:53:34;;;;;;;8.25;4.10;;;;;;;16.22;100.00;99615.59;5040815;28;20117;-85
2022/05/29 11:56:10;;;;;;;11.23;4.00;;;;;;;16.13;100.00;99614.25;5050211;28;20030;-85
2022/05/29 11:58:39;;;;;;;11.20;4.15;;;;;;;16.28;100.00;99617.38;5043441;28;20024;-86
2022/05/29 12:01:21;;;;;;;9.50;3.90;;;;;;;16.32;100.00;99610.56;5067915;28;20034;-84
2022/05/29 12:04:11;;;;;;;12.50;4.28;;;;;;;16.40;100.00;99607.63;5061178;28;20037;-85
2022/05/29 12:06:45;;;;;;;9.40;4.20;;;;;;;16.32;100.00;99618.59;5052171;28;20044;-84
2022/05/29 12:09:38;;;;;;;8.57;3.85;;;;;;;16.39;100.00;99620.16;5050685;28;20045;-85
2022/05/29 12:12:17;;;;;;;6.50;4.60;;;;;;;16.41;100.00;99617.25;5052556;28;20033;-89
2022/05/29 12:14:58;;;;;;;9.10;4.40;;;;;;;16.48;100.00;99612.66;5043526;28;20032;-83
2022/05/29 12:17:44;;;;;;;9.48;4.00;;;;;;;16.60;100.00;99610.94;5041623;28;20033;-83
2022/05/29 12:20:22;;;;;;;7.85;3.70;;;;;;;16.64;100.00;99614.75;5041093;28;20404;-84
2022/05/29 12:22:57;;;;;;;7.38;3.80;;;;;;;16.58;100.00;99612.97;5047372;28;20044;-84
2022/05/29 12:25:38;;;;;;;9.90;3.63;;;;;;;16.68;100.00;99604.44;5026877;28;20579;-84
2022/05/29 12:28:07;;;;;;;10.23;4.20;;;;;;;16.74;100.00;99615.06;5051666;28;20036;-85
2022/05/29 12:30:39;;;;;;;8.13;4.10;;;;;;;16.80;100.00;99610.69;5055192;28;20029;-84
2022/05/29 12:33:17;;;;;;;7.43;3.90;;;;;;;16.93;100.00;99606.00;5048385;28;20071;-85
2022/05/29 12:36:10;;;;;;;6.55;4.35;;;;;;;17.01;100.00;99611.03;5052006;28;20026;-83
2022/05/29 12:39:00;;;;;;;6.93;3.97;;;;;;;16.92;100.00;99615.06;5050479;28;20038;-82
2022/05/29 12:41:58;;;;;;;11.98;3.70;;;;;;;16.89;100.00;99617.38;5026165;28;20041;-82
2022/05/29 12:44:57;;;;;;;8.60;4.00;;;;;;;16.78;100.00;99613.56;5041143;28;20049;-85
2022/05/29 12:47:42;;;;;;;7.05;3.67;;;;;;;16.74;100.00;99625.75;5054673;28;20122;-84
2022/05/29 12:50:19;;;;;;;8.25;4.50;;;;;;;16.80;100.00;99616.03;5037055;28;20041;-86